CheckWX is a tool to help pilots better visualize weather data.  It is not intended as a substitute for an official pre-flight weather briefing.

15:42:46 UTC

KCEC TAF
Jack Mc Namara Field Airport
Crescent City, California, USA
KCEC 211120Z 2112/2212 05010KT P6SM SKC FM211800 21006KT P6SM SKC

Nov-21@
12:00 UTC

Nov-21 @ 12:00 UTC

Nov-21@
18:00 UTC

Nov-21 @ 18:00 UTC

KCEC 211120Z 2112/2212 05010KT P6SM SKC
Wind
  • 050° at 10 KTS
Cloud Levels
  • Clear skies

Nov-21@
18:00 UTC

Nov-21 @ 18:00 UTC

Nov-22@
12:00 UTC

Nov-22 @ 12:00 UTC

FM211800 21006KT P6SM SKC

From

From Standard forecast or significant change

Wind
  • 210° at 6 KTS
Cloud Levels
  • Clear skies